Time;durP1;ratioP1;P1;durP2;ratioP2;P2;SDS_P1;SDS_P2;PMS_P1;PMS_P2;Temp;Humidity;BMP_temperature;BMP_pressure;BME280_temperature;BME280_humidity;BME280_pressure;Samples;Min_cycle;Max_cycle;Signal;HPM_P1;HPM_P2
2021/01/05 00:01:01;;;;;;;;;;;;;;;;;;5014168;28;19925;-63
2021/01/05 00:03:27;;;;;;;;;;;;;;;;;;5014371;28;19925;-63
2021/01/05 00:05:54;;;;;;;;;;;;;;;;;;5013949;28;19926;-63
2021/01/05 00:08:20;;;;;;;;;;;;;;;;;;5013554;28;19947;-63
2021/01/05 00:10:47;;;;;;;;;;;;;;;;;;5013804;28;19936;-63
2021/01/05 00:13:13;;;;;;;;;;;;;;;;;;5013613;28;19929;-63
2021/01/05 00:15:40;;;;;;;;;;;;;;;;;;5013289;28;19931;-63
2021/01/05 00:18:06;;;;;;;;;;;;;;;;;;5013649;28;19973;-63
2021/01/05 00:20:33;;;;;;;;;;;;;;;;;;5013431;28;19925;-63
2021/01/05 00:22:59;;;;;;;;;;;;;;;;;;5013797;28;20012;-63
2021/01/05 00:25:27;;;;;;;;;;;;;;;;;;5013808;28;19949;-63
2021/01/05 00:27:53;;;;;;;;;;;;;;;;;;5013535;28;20364;-63
2021/01/05 00:30:20;;;;;;;;;;;;;;;;;;5013471;28;19925;-63
2021/01/05 00:32:46;;;;;;;;;;;;;;;;;;5013706;28;19936;-63
2021/01/05 00:35:13;;;;;;;;;;;;;;;;;;5013540;28;19932;-63
2021/01/05 00:37:39;;;;;;;;;;;;;;;;;;5013688;28;19987;-63
2021/01/05 00:40:06;;;;;;;;;;;;;;;;;;5012922;28;19925;-63
2021/01/05 00:42:32;;;;;;;;;;;;;;;;;;5013530;28;20303;-63
2021/01/05 00:44:59;;;;;;;;;;;;;;;;;;5013590;28;20334;-63
2021/01/05 00:47:25;;;;;;;;;;;;;;;;;;5013358;28;20310;-63
2021/01/05 00:49:51;;;;;;;;;;;;;;;;;;5013189;28;19926;-63
2021/01/05 00:52:18;;;;;;;;;;;;;;;;;;5013754;28;20350;-63
2021/01/05 00:54:44;;;;;;;;;;;;;;;;;;5012768;28;20399;-63
2021/01/05 00:57:11;;;;;;;;;;;;;;;;;;5013067;28;19930;-63
2021/01/05 00:59:37;;;;;;;;;;;;;;;;;;5013035;28;19961;-63
2021/01/05 01:02:04;;;;;;;;;;;;;;;;;;5013442;28;19926;-63
2021/01/05 01:04:30;;;;;;;;;;;;;;;;;;5012614;28;19932;-63
2021/01/05 01:06:56;;;;;;;;;;;;;;;;;;5013042;28;19929;-63
2021/01/05 01:09:23;;;;;;;;;;;;;;;;;;5012926;28;19961;-63
2021/01/05 01:11:49;;;;;;;;;;;;;;;;;;5012855;28;20011;-63
2021/01/05 01:14:16;;;;;;;;;;;;;;;;;;5012881;28;20375;-63
2021/01/05 01:16:42;;;;;;;;;;;;;;;;;;5012874;28;19937;-63
2021/01/05 01:19:09;;;;;;;;;;;;;;;;;;5012301;28;19926;-63
2021/01/05 01:21:35;;;;;;;;;;;;;;;;;;5012847;28;19925;-63
2021/01/05 01:24:01;;;;;;;;;;;;;;;;;;5012952;28;19935;-64
2021/01/05 01:26:28;;;;;;;;;;;;;;;;;;5012805;28;20029;-63
2021/01/05 01:28:54;;;;;;;;;;;;;;;;;;5012670;28;19926;-63
2021/01/05 01:31:21;;;;;;;;;;;;;;;;;;5012865;28;19926;-64
2021/01/05 01:33:47;;;;;;;;;;;;;;;;;;5012102;28;19926;-64
2021/01/05 01:36:13;;;;;;;;;;;;;;;;;;5012428;28;19925;-63
2021/01/05 01:38:40;;;;;;;;;;;;;;;;;;5012291;28;19925;-63
2021/01/05 01:41:06;;;;;;;;;;;;;;;;;;5008827;28;20502;-63
2021/01/05 01:43:33;;;;;;;;;;;;;;;;;;5002502;28;20409;-63
2021/01/05 01:45:59;;;;;;;;;;;;;;;;;;5012392;28;20024;-61
2021/01/05 01:48:26;;;;;;;;;;;;;;;;;;5012471;28;19926;-61
2021/01/05 01:50:54;;;;;;;;;;;;;;;;;;5006583;28;19926;-61
2021/01/05 01:53:20;;;;;;;;;;;;;;;;;;4998423;28;20016;-62
2021/01/05 01:55:47;;;;;;;;;;;;;;;;;;5012375;28;19930;-61
2021/01/05 01:58:14;;;;;;;;;;;;;;;;;;5012039;28;19925;-62
2021/01/05 02:00:40;;;;;;;;;;;;;;;;;;5011895;28;20343;-62
2021/01/05 02:03:07;;;;;;;;;;;;;;;;;;5012270;28;20310;-62
2021/01/05 02:05:33;;;;;;;;;;;;;;;;;;5012320;28;19972;-62
2021/01/05 02:08:00;;;;;;;;;;;;;;;;;;5011999;28;19926;-62
2021/01/05 02:10:26;;;;;;;;;;;;;;;;;;5012763;28;19979;-62
2021/01/05 02:12:53;;;;;;;;;;;;;;;;;;5012401;28;19925;-62
2021/01/05 02:15:19;;;;;;;;;;;;;;;;;;5012489;28;19955;-62
2021/01/05 02:17:46;;;;;;;;;;;;;;;;;;5015948;28;19925;-62
2021/01/05 02:20:12;;;;;;;;;;;;;;;;;;5015693;28;19932;-62
2021/01/05 02:22:39;;;;;;;;;;;;;;;;;;5016315;28;20024;-62
2021/01/05 02:25:05;;;;;;;;;;;;;;;;;;5012124;28;20441;-62
2021/01/05 02:27:32;;;;;;;;;;;;;;;;;;5026066;28;20023;-62
2021/01/05 02:29:58;;;;;;;;;;;;;;;;;;5017073;28;19975;-62
2021/01/05 02:32:25;;;;;;;;;;;;;;;;;;5016126;28;20398;-62
2021/01/05 02:34:51;;;;;;;;;;;;;;;;;;5035189;28;19986;-62
2021/01/05 02:37:18;;;;;;;;;;;;;;;;;;5022522;28;19933;-62
2021/01/05 02:39:44;;;;;;;;;;;;;;;;;;5015195;28;19925;-60
2021/01/05 02:42:11;;;;;;;;;;;;;;;;;;5016035;28;20350;-62
2021/01/05 02:44:37;;;;;;;;;;;;;;;;;;5015507;28;19925;-62
2021/01/05 02:47:03;;;;;;;;;;;;;;;;;;5015191;28;19933;-63
2021/01/05 02:49:30;;;;;;;;;;;;;;;;;;5028041;28;19933;-62
2021/01/05 02:51:56;;;;;;;;;;;;;;;;;;5035312;28;19929;-62
2021/01/05 02:54:23;;;;;;;;;;;;;;;;;;5028828;28;19926;-61
2021/01/05 02:56:49;;;;;;;;;;;;;;;;;;5015486;28;20028;-62
2021/01/05 02:59:16;;;;;;;;;;;;;;;;;;5014885;28;19929;-62
2021/01/05 03:01:42;;;;;;;;;;;;;;;;;;5015389;28;19930;-62
2021/01/05 03:04:09;;;;;;;;;;;;;;;;;;5014963;28;19929;-62
2021/01/05 03:06:35;;;;;;;;;;;;;;;;;;5015104;28;20342;-61
2021/01/05 03:09:02;;;;;;;;;;;;;;;;;;5017155;28;19926;-62
2021/01/05 03:11:28;;;;;;;;;;;;;;;;;;5015481;28;20294;-62
2021/01/05 03:13:55;;;;;;;;;;;;;;;;;;5014974;28;19931;-61
2021/01/05 03:16:21;;;;;;;;;;;;;;;;;;5014876;28;19926;-62
2021/01/05 03:18:48;;;;;;;;;;;;;;;;;;5015129;28;19926;-62
2021/01/05 03:21:14;;;;;;;;;;;;;;;;;;5014813;28;19956;-62
2021/01/05 03:23:41;;;;;;;;;;;;;;;;;;5014686;28;19972;-62
2021/01/05 03:26:07;;;;;;;;;;;;;;;;;;5014587;28;19926;-62
2021/01/05 03:28:33;;;;;;;;;;;;;;;;;;5014844;28;19929;-62
2021/01/05 03:31:00;;;;;;;;;;;;;;;;;;5014868;28;20413;-62
2021/01/05 03:33:26;;;;;;;;;;;;;;;;;;5014774;28;20326;-62
2021/01/05 03:35:53;;;;;;;;;;;;;;;;;;5014863;28;20386;-62
2021/01/05 03:38:19;;;;;;;;;;;;;;;;;;5014902;28;20334;-62
2021/01/05 03:40:46;;;;;;;;;;;;;;;;;;5017405;28;19933;-62
2021/01/05 03:43:12;;;;;;;;;;;;;;;;;;5034289;28;19925;-62
2021/01/05 03:45:39;;;;;;;;;;;;;;;;;;5032184;28;20304;-62
2021/01/05 03:48:05;;;;;;;;;;;;;;;;;;5014547;28;19935;-62
2021/01/05 03:50:32;;;;;;;;;;;;;;;;;;5014068;28;19933;-62
2021/01/05 03:52:58;;;;;;;;;;;;;;;;;;5014010;28;20436;-62
2021/01/05 03:55:24;;;;;;;;;;;;;;;;;;5014320;28;19930;-62
2021/01/05 03:57:51;;;;;;;;;;;;;;;;;;5014170;28;19980;-62
2021/01/05 04:00:24;;;;;;;;;;;;;;;;;;5013776;28;19925;-62
2021/01/05 04:02:50;;;;;;;;;;;;;;;;;;5014068;28;19925;-62
2021/01/05 04:05:17;;;;;;;;;;;;;;;;;;5025671;28;19925;-62
2021/01/05 04:07:43;;;;;;;;;;;;;;;;;;5034094;28;20318;-62
2021/01/05 04:10:10;;;;;;;;;;;;;;;;;;5033733;28;19931;-62
2021/01/05 04:12:36;;;;;;;;;;;;;;;;;;5033668;28;19929;-63
2021/01/05 04:15:03;;;;;;;;;;;;;;;;;;5033759;28;20001;-62
2021/01/05 04:17:29;;;;;;;;;;;;;;;;;;5033829;28;20364;-62
2021/01/05 04:19:56;;;;;;;;;;;;;;;;;;5018558;28;20074;-62
2021/01/05 04:22:22;;;;;;;;;;;;;;;;;;5013930;28;19925;-62
2021/01/05 04:24:48;;;;;;;;;;;;;;;;;;5013939;28;19932;-62
2021/01/05 04:27:15;;;;;;;;;;;;;;;;;;5014090;28;19976;-62
2021/01/05 04:29:41;;;;;;;;;;;;;;;;;;5013694;28;19936;-62
2021/01/05 04:32:08;;;;;;;;;;;;;;;;;;5013895;28;19926;-62
2021/01/05 04:34:34;;;;;;;;;;;;;;;;;;5013818;28;19929;-62
2021/01/05 04:37:01;;;;;;;;;;;;;;;;;;5013983;28;19932;-63
2021/01/05 04:39:27;;;;;;;;;;;;;;;;;;5012851;28;19975;-62
2021/01/05 04:41:53;;;;;;;;;;;;;;;;;;5013612;28;19925;-62
2021/01/05 04:44:20;;;;;;;;;;;;;;;;;;5013699;28;19972;-62
2021/01/05 04:46:46;;;;;;;;;;;;;;;;;;5013790;28;19929;-62
2021/01/05 04:49:13;;;;;;;;;;;;;;;;;;5013261;28;19988;-62
2021/01/05 04:51:39;;;;;;;;;;;;;;;;;;5013237;28;20458;-62
2021/01/05 04:54:06;;;;;;;;;;;;;;;;;;4993706;28;19929;-63
2021/01/05 04:56:32;;;;;;;;;;;;;;;;;;4993697;28;19971;-63
2021/01/05 04:58:59;;;;;;;;;;;;;;;;;;5011995;28;19925;-62
2021/01/05 05:01:25;;;;;;;;;;;;;;;;;;5013535;28;20016;-62
2021/01/05 05:03:52;;;;;;;;;;;;;;;;;;5013126;28;19925;-62
2021/01/05 05:06:18;;;;;;;;;;;;;;;;;;5013224;28;19925;-62
2021/01/05 05:08:44;;;;;;;;;;;;;;;;;;5013186;28;20390;-62
2021/01/05 05:11:11;;;;;;;;;;;;;;;;;;5013408;28;20299;-62
2021/01/05 05:13:37;;;;;;;;;;;;;;;;;;5012957;28;19948;-62
2021/01/05 05:16:04;;;;;;;;;;;;;;;;;;5013214;28;19971;-62
2021/01/05 05:18:30;;;;;;;;;;;;;;;;;;5028342;23;19924;-66
2021/01/05 05:20:57;;;;;;;;;;;;;;;;;;5011138;28;20041;-66
2021/01/05 05:23:23;;;;;;;;;;;;;;;;;;5011707;28;19959;-67
2021/01/05 05:25:50;;;;;;;;;;;;;;;;;;5009710;28;20036;-67
2021/01/05 05:28:16;;;;;;;;;;;;;;;;;;5008186;28;20016;-66
2021/01/05 05:30:43;;;;;;;;;;;;;;;;;;5011142;28;19931;-66
2021/01/05 05:33:09;;;;;;;;;;;;;;;;;;5003834;28;19926;-66
2021/01/05 05:35:35;;;;;;;;;;;;;;;;;;5012592;28;19979;-67
2021/01/05 05:38:02;;;;;;;;;;;;;;;;;;5008986;28;19929;-66
2021/01/05 05:40:28;;;;;;;;;;;;;;;;;;5008649;28;19971;-66
2021/01/05 05:42:55;;;;;;;;;;;;;;;;;;5006423;28;19932;-66
2021/01/05 05:45:21;;;;;;;;;;;;;;;;;;5011108;28;19929;-66
2021/01/05 05:47:48;;;;;;;;;;;;;;;;;;5011102;28;19992;-67
2021/01/05 05:50:14;;;;;;;;;;;;;;;;;;5011602;28;19925;-66
2021/01/05 05:52:41;;;;;;;;;;;;;;;;;;5015712;28;19933;-67
2021/01/05 05:55:07;;;;;;;;;;;;;;;;;;5013640;28;19926;-67
2021/01/05 05:57:34;;;;;;;;;;;;;;;;;;5013737;28;19930;-66
2021/01/05 06:00:00;;;;;;;;;;;;;;;;;;5011686;28;19926;-67
2021/01/05 06:02:27;;;;;;;;;;;;;;;;;;5015245;28;19955;-66
2021/01/05 06:04:53;;;;;;;;;;;;;;;;;;5014703;28;20418;-67
2021/01/05 06:07:19;;;;;;;;;;;;;;;;;;5014495;28;20360;-67
2021/01/05 06:09:46;;;;;;;;;;;;;;;;;;5015657;28;19980;-66
2021/01/05 06:12:12;;;;;;;;;;;;;;;;;;4998484;28;19926;-67
2021/01/05 06:14:39;;;;;;;;;;;;;;;;;;5009320;28;19944;-67
2021/01/05 06:17:05;;;;;;;;;;;;;;;;;;5015617;28;19926;-67
2021/01/05 06:19:32;;;;;;;;;;;;;;;;;;5014689;28;19926;-67
2021/01/05 06:21:58;;;;;;;;;;;;;;;;;;5014901;28;19929;-66
2021/01/05 06:24:25;;;;;;;;;;;;;;;;;;5007239;28;19925;-67
2021/01/05 06:26:51;;;;;;;;;;;;;;;;;;5014964;28;19930;-67
2021/01/05 06:29:18;;;;;;;;;;;;;;;;;;5014938;28;19926;-66
2021/01/05 06:31:44;;;;;;;;;;;;;;;;;;5013328;28;19925;-66
2021/01/05 06:34:11;;;;;;;;;;;;;;;;;;5014297;28;19929;-66
2021/01/05 06:36:37;;;;;;;;;;;;;;;;;;5015011;28;19932;-67
2021/01/05 06:39:04;;;;;;;;;;;;;;;;;;5014483;28;20302;-67
2021/01/05 06:41:31;;;;;;;;;;;;;;;;;;5013205;28;19936;-67
2021/01/05 06:43:57;;;;;;;;;;;;;;;;;;5005947;28;19926;-66
2021/01/05 06:46:24;;;;;;;;;;;;;;;;;;5008446;28;19932;-66
2021/01/05 06:48:50;;;;;;;;;;;;;;;;;;5013025;28;20391;-66
2021/01/05 06:51:17;;;;;;;;;;;;;;;;;;5014037;28;19940;-66
2021/01/05 06:53:43;;;;;;;;;;;;;;;;;;5014185;28;20413;-66
2021/01/05 06:56:10;;;;;;;;;;;;;;;;;;5013838;28;19925;-67
2021/01/05 06:58:36;;;;;;;;;;;;;;;;;;5006663;28;19925;-66
2021/01/05 07:01:03;;;;;;;;;;;;;;;;;;5003721;28;19971;-66
2021/01/05 07:03:29;;;;;;;;;;;;;;;;;;5011503;28;20272;-67
2021/01/05 07:05:56;;;;;;;;;;;;;;;;;;5007357;28;19971;-66
2021/01/05 07:08:22;;;;;;;;;;;;;;;;;;5014765;28;20688;-66
2021/01/05 07:10:49;;;;;;;;;;;;;;;;;;5012835;28;19926;-66
2021/01/05 07:13:15;;;;;;;;;;;;;;;;;;5010795;28;19933;-66
2021/01/05 07:15:42;;;;;;;;;;;;;;;;;;5012877;28;19925;-67
2021/01/05 07:18:08;;;;;;;;;;;;;;;;;;5011539;28;19925;-67
2021/01/05 07:20:35;;;;;;;;;;;;;;;;;;5012837;28;19925;-67
2021/01/05 07:23:01;;;;;;;;;;;;;;;;;;5012265;28;19930;-67
2021/01/05 07:25:27;;;;;;;;;;;;;;;;;;5011489;28;19925;-67
2021/01/05 07:27:54;;;;;;;;;;;;;;;;;;5012726;28;19925;-67
2021/01/05 07:30:20;;;;;;;;;;;;;;;;;;5008674;28;19937;-66
2021/01/05 07:32:47;;;;;;;;;;;;;;;;;;5007385;28;20004;-66
2021/01/05 07:35:13;;;;;;;;;;;;;;;;;;5011727;28;20383;-68
2021/01/05 07:37:40;;;;;;;;;;;;;;;;;;5010666;28;20303;-67
2021/01/05 07:40:07;;;;;;;;;;;;;;;;;;5011720;28;19926;-67
2021/01/05 07:42:33;;;;;;;;;;;;;;;;;;5007786;28;20376;-68
2021/01/05 07:44:59;;;;;;;;;;;;;;;;;;5011032;28;19932;-67
2021/01/05 07:47:26;;;;;;;;;;;;;;;;;;5010973;28;20306;-66
2021/01/05 07:49:52;;;;;;;;;;;;;;;;;;5011930;28;20012;-67
2021/01/05 07:52:19;;;;;;;;;;;;;;;;;;5010369;28;19926;-67
2021/01/05 07:54:45;;;;;;;;;;;;;;;;;;5006739;28;19932;-65
2021/01/05 07:57:12;;;;;;;;;;;;;;;;;;5004465;28;20016;-65
2021/01/05 07:59:38;;;;;;;;;;;;;;;;;;5011599;28;19925;-65
2021/01/05 08:02:05;;;;;;;;;;;;;;;;;;5003342;28;19926;-65
2021/01/05 08:04:31;;;;;;;;;;;;;;;;;;5008386;28;19929;-67
2021/01/05 08:06:58;;;;;;;;;;;;;;;;;;5008484;28;19944;-67
2021/01/05 08:09:24;;;;;;;;;;;;;;;;;;5008078;28;20020;-68
2021/01/05 08:11:51;;;;;;;;;;;;;;;;;;5006220;28;20039;-67
2021/01/05 08:14:17;;;;;;;;;;;;;;;;;;5003080;28;19925;-68
2021/01/05 08:16:44;;;;;;;;;;;;;;;;;;5007585;28;19926;-66
2021/01/05 08:19:10;;;;;;;;;;;;;;;;;;5015259;28;19997;-66
2021/01/05 08:21:37;;;;;;;;;;;;;;;;;;5017939;28;20109;-66
2021/01/05 08:24:03;;;;;;;;;;;;;;;;;;5019340;28;19997;-65
2021/01/05 08:26:30;;;;;;;;;;;;;;;;;;5018537;28;19925;-65
2021/01/05 08:28:58;;;;;;;;;;;;;;;;;;5015965;28;20129;-65
2021/01/05 08:31:24;;;;;;;;;;;;;;;;;;5013549;28;19926;-65
2021/01/05 08:33:51;;;;;;;;;;;;;;;;;;5012112;28;19929;-67
2021/01/05 08:36:18;;;;;;;;;;;;;;;;;;5010650;28;20024;-67
2021/01/05 08:38:44;;;;;;;;;;;;;;;;;;5007899;28;19980;-67
2021/01/05 08:41:11;;;;;;;;;;;;;;;;;;5005569;28;20424;-67
2021/01/05 08:43:37;;;;;;;;;;;;;;;;;;5009849;28;20020;-67
2021/01/05 08:46:04;;;;;;;;;;;;;;;;;;5009091;28;20375;-67
2021/01/05 08:48:30;;;;;;;;;;;;;;;;;;5009060;28;19925;-67
2021/01/05 08:50:57;;;;;;;;;;;;;;;;;;5004163;28;19933;-66
2021/01/05 08:53:25;;;;;;;;;;;;;;;;;;5009638;28;19935;-67
2021/01/05 08:55:52;;;;;;;;;;;;;;;;;;5009477;28;19937;-67
2021/01/05 08:58:18;;;;;;;;;;;;;;;;;;5007890;28;19926;-67
2021/01/05 09:00:44;;;;;;;;;;;;;;;;;;5018013;28;19940;-65
2021/01/05 09:03:11;;;;;;;;;;;;;;;;;;5008322;28;19985;-65
2021/01/05 09:05:39;;;;;;;;;;;;;;;;;;5017065;28;19971;-65
2021/01/05 09:08:05;;;;;;;;;;;;;;;;;;5016013;28;19925;-66
2021/01/05 09:10:32;;;;;;;;;;;;;;;;;;5019277;28;19925;-65
2021/01/05 09:12:58;;;;;;;;;;;;;;;;;;5013504;28;20016;-65
2021/01/05 09:15:25;;;;;;;;;;;;;;;;;;5015770;28;19926;-65
2021/01/05 09:17:51;;;;;;;;;;;;;;;;;;5015839;28;19992;-65
2021/01/05 09:20:18;;;;;;;;;;;;;;;;;;5015350;28;20021;-66
2021/01/05 09:22:44;;;;;;;;;;;;;;;;;;5016813;28;20001;-65
2021/01/05 09:25:11;;;;;;;;;;;;;;;;;;5017193;28;20160;-66
2021/01/05 09:27:37;;;;;;;;;;;;;;;;;;5012869;28;20475;-66
2021/01/05 09:30:04;;;;;;;;;;;;;;;;;;5010681;28;20018;-66
2021/01/05 09:32:30;;;;;;;;;;;;;;;;;;5016808;28;19968;-65
2021/01/05 09:34:57;;;;;;;;;;;;;;;;;;5012579;28;20028;-65
2021/01/05 09:37:23;;;;;;;;;;;;;;;;;;5017066;28;19925;-66
2021/01/05 09:39:51;;;;;;;;;;;;;;;;;;5010648;28;19963;-66
2021/01/05 09:42:18;;;;;;;;;;;;;;;;;;5015871;28;19949;-65
2021/01/05 09:44:44;;;;;;;;;;;;;;;;;;5017790;28;20045;-66
2021/01/05 09:47:11;;;;;;;;;;;;;;;;;;5016277;28;20024;-66
2021/01/05 09:49:38;;;;;;;;;;;;;;;;;;5017559;28;19984;-65
2021/01/05 09:52:04;;;;;;;;;;;;;;;;;;5016011;28;19926;-66
2021/01/05 09:54:31;;;;;;;;;;;;;;;;;;5016752;28;20403;-66
2021/01/05 09:56:58;;;;;;;;;;;;;;;;;;5011866;28;19956;-65
2021/01/05 09:59:26;;;;;;;;;;;;;;;;;;5016897;28;19925;-65
2021/01/05 10:01:52;;;;;;;;;;;;;;;;;;5014773;28;20314;-65
2021/01/05 10:04:18;;;;;;;;;;;;;;;;;;5014351;28;19925;-66
2021/01/05 10:06:45;;;;;;;;;;;;;;;;;;5014324;28;20291;-65
2021/01/05 10:09:12;;;;;;;;;;;;;;;;;;5011441;28;20383;-66
2021/01/05 10:11:38;;;;;;;;;;;;;;;;;;5009747;28;19932;-67
2021/01/05 10:14:05;;;;;;;;;;;;;;;;;;5006450;28;19926;-66
2021/01/05 10:16:31;;;;;;;;;;;;;;;;;;5002900;28;19925;-67
2021/01/05 10:18:58;;;;;;;;;;;;;;;;;;5003345;28;20294;-67
2021/01/05 10:21:24;;;;;;;;;;;;;;;;;;5000375;28;19933;-68
2021/01/05 10:23:51;;;;;;;;;;;;;;;;;;4995898;28;20396;-67
2021/01/05 10:26:17;;;;;;;;;;;;;;;;;;5006759;28;19925;-67
2021/01/05 10:28:44;;;;;;;;;;;;;;;;;;5005619;28;19932;-68
2021/01/05 10:31:10;;;;;;;;;;;;;;;;;;5005288;28;19936;-68
2021/01/05 10:33:37;;;;;;;;;;;;;;;;;;5008986;28;19931;-68
2021/01/05 10:36:03;;;;;;;;;;;;;;;;;;5008534;28;19926;-67
2021/01/05 10:38:30;;;;;;;;;;;;;;;;;;5011714;28;20012;-68
2021/01/05 10:40:56;;;;;;;;;;;;;;;;;;5009518;28;20587;-67
2021/01/05 10:43:23;;;;;;;;;;;;;;;;;;5008240;28;19932;-67
2021/01/05 10:45:49;;;;;;;;;;;;;;;;;;5008577;28;20346;-67
2021/01/05 10:48:16;;;;;;;;;;;;;;;;;;5010300;28;19975;-68
2021/01/05 10:50:42;;;;;;;;;;;;;;;;;;5012657;28;19932;-68
2021/01/05 10:53:10;;;;;;;;;;;;;;;;;;5011412;28;19956;-68
2021/01/05 10:55:36;;;;;;;;;;;;;;;;;;5007252;28;20068;-68
2021/01/05 10:58:03;;;;;;;;;;;;;;;;;;5010766;28;19925;-68
2021/01/05 11:00:29;;;;;;;;;;;;;;;;;;5013059;28;19933;-67
2021/01/05 11:02:56;;;;;;;;;;;;;;;;;;5006887;28;19961;-68
2021/01/05 11:05:22;;;;;;;;;;;;;;;;;;5009449;28;20012;-67
2021/01/05 11:07:49;;;;;;;;;;;;;;;;;;5006415;28;19925;-67
2021/01/05 11:10:15;;;;;;;;;;;;;;;;;;5009962;28;19929;-67
2021/01/05 11:12:42;;;;;;;;;;;;;;;;;;5005468;28;20454;-68
2021/01/05 11:15:08;;;;;;;;;;;;;;;;;;5009718;28;19932;-68
2021/01/05 11:17:35;;;;;;;;;;;;;;;;;;5004487;28;20277;-67
2021/01/05 11:20:01;;;;;;;;;;;;;;;;;;5016400;23;19932;-62
2021/01/05 11:22:28;;;;;;;;;;;;;;;;;;4993028;28;20012;-62
2021/01/05 11:24:54;;;;;;;;;;;;;;;;;;4993378;28;19930;-63
2021/01/05 11:27:21;;;;;;;;;;;;;;;;;;4993856;28;20379;-63
2021/01/05 11:29:47;;;;;;;;;;;;;;;;;;4990258;28;20275;-65
2021/01/05 11:32:14;;;;;;;;;;;;;;;;;;4991015;28;19926;-63
2021/01/05 11:34:40;;;;;;;;;;;;;;;;;;4990238;28;19926;-64
2021/01/05 11:37:07;;;;;;;;;;;;;;;;;;4988756;28;20020;-65
2021/01/05 11:39:33;;;;;;;;;;;;;;;;;;4987439;28;19996;-63
2021/01/05 11:42:00;;;;;;;;;;;;;;;;;;4986571;28;19926;-63
2021/01/05 11:44:26;;;;;;;;;;;;;;;;;;4985657;28;19976;-63
2021/01/05 11:46:53;;;;;;;;;;;;;;;;;;4988672;28;19930;-67
2021/01/05 11:49:19;;;;;;;;;;;;;;;;;;4980584;28;19926;-63
2021/01/05 11:51:46;;;;;;;;;;;;;;;;;;4988660;28;20401;-64
2021/01/05 11:54:12;;;;;;;;;;;;;;;;;;4992141;28;19956;-63
2021/01/05 11:56:39;;;;;;;;;;;;;;;;;;4990721;28;19926;-63
2021/01/05 11:59:05;;;;;;;;;;;;;;;;;;4993813;28;19932;-63
2021/01/05 12:01:32;;;;;;;;;;;;;;;;;;4993314;28;19925;-63
2021/01/05 12:03:58;;;;;;;;;;;;;;;;;;4994577;28;19930;-64
2021/01/05 12:06:25;;;;;;;;;;;;;;;;;;4992573;28;19965;-63
2021/01/05 12:08:51;;;;;;;;;;;;;;;;;;4992152;28;19926;-64
2021/01/05 12:11:18;;;;;;;;;;;;;;;;;;4987601;28;19926;-63
2021/01/05 12:13:44;;;;;;;;;;;;;;;;;;4997228;28;20019;-64
2021/01/05 12:16:11;;;;;;;;;;;;;;;;;;4986790;28;20036;-63
2021/01/05 12:18:38;;;;;;;;;;;;;;;;;;4989983;28;20582;-64
2021/01/05 12:21:04;;;;;;;;;;;;;;;;;;4991812;28;19926;-64
2021/01/05 12:23:30;;;;;;;;;;;;;;;;;;4990587;28;19980;-64
2021/01/05 12:25:57;;;;;;;;;;;;;;;;;;4985765;28;19940;-64
2021/01/05 12:28:23;;;;;;;;;;;;;;;;;;4988779;28;19930;-64
2021/01/05 12:30:50;;;;;;;;;;;;;;;;;;4991350;28;19925;-64
2021/01/05 12:33:16;;;;;;;;;;;;;;;;;;4991456;28;20455;-64
2021/01/05 12:35:43;;;;;;;;;;;;;;;;;;4990604;28;19930;-64
2021/01/05 12:38:09;;;;;;;;;;;;;;;;;;4991777;28;19957;-64
2021/01/05 12:40:36;;;;;;;;;;;;;;;;;;4989382;28;19926;-64
2021/01/05 12:43:02;;;;;;;;;;;;;;;;;;4991107;28;20016;-63
2021/01/05 12:45:29;;;;;;;;;;;;;;;;;;4985929;28;19951;-63
2021/01/05 12:47:55;;;;;;;;;;;;;;;;;;4987732;28;19932;-63
2021/01/05 12:50:22;;;;;;;;;;;;;;;;;;4989780;28;19926;-64
2021/01/05 12:52:50;;;;;;;;;;;;;;;;;;4991204;28;20315;-64
2021/01/05 12:55:16;;;;;;;;;;;;;;;;;;4995185;28;19926;-65
2021/01/05 12:57:43;;;;;;;;;;;;;;;;;;4986174;28;19985;-65
2021/01/05 13:00:09;;;;;;;;;;;;;;;;;;4985567;28;20418;-65
2021/01/05 13:02:36;;;;;;;;;;;;;;;;;;4990629;28;19929;-65
2021/01/05 13:05:02;;;;;;;;;;;;;;;;;;4988892;28;20043;-66
2021/01/05 13:07:29;;;;;;;;;;;;;;;;;;4990641;28;20030;-65
2021/01/05 13:09:55;;;;;;;;;;;;;;;;;;4984194;28;19934;-65
2021/01/05 13:12:22;;;;;;;;;;;;;;;;;;4985445;28;20331;-65
2021/01/05 13:14:48;;;;;;;;;;;;;;;;;;4989447;28;19925;-65
2021/01/05 13:17:15;;;;;;;;;;;;;;;;;;4983950;28;19926;-64
2021/01/05 13:19:41;;;;;;;;;;;;;;;;;;4987181;28;19933;-64
2021/01/05 13:22:08;;;;;;;;;;;;;;;;;;4990200;28;19926;-64
2021/01/05 13:24:34;;;;;;;;;;;;;;;;;;4992386;28;19925;-65
2021/01/05 13:27:01;;;;;;;;;;;;;;;;;;4988722;28;19926;-65
2021/01/05 13:29:27;;;;;;;;;;;;;;;;;;4985459;28;19926;-65
2021/01/05 13:31:54;;;;;;;;;;;;;;;;;;4982380;28;19933;-63
2021/01/05 13:34:20;;;;;;;;;;;;;;;;;;4988942;28;19934;-63
2021/01/05 13:36:47;;;;;;;;;;;;;;;;;;4986650;28;19929;-66
2021/01/05 13:39:13;;;;;;;;;;;;;;;;;;4990496;28;19936;-64
2021/01/05 13:41:40;;;;;;;;;;;;;;;;;;4981897;28;19952;-64
2021/01/05 13:44:06;;;;;;;;;;;;;;;;;;4990852;28;19926;-64
2021/01/05 13:46:33;;;;;;;;;;;;;;;;;;4987180;28;20392;-64
2021/01/05 13:48:59;;;;;;;;;;;;;;;;;;4983134;28;19969;-64
2021/01/05 13:51:26;;;;;;;;;;;;;;;;;;4985943;28;19930;-64
2021/01/05 13:53:52;;;;;;;;;;;;;;;;;;4988897;28;19926;-64
2021/01/05 13:56:19;;;;;;;;;;;;;;;;;;4983126;28;19926;-65
2021/01/05 13:58:45;;;;;;;;;;;;;;;;;;4991263;28;19925;-64
2021/01/05 14:01:12;;;;;;;;;;;;;;;;;;4994823;28;19932;-64
2021/01/05 14:03:38;;;;;;;;;;;;;;;;;;4989931;28;19962;-64
2021/01/05 14:06:05;;;;;;;;;;;;;;;;;;4989440;28;20261;-64
2021/01/05 14:08:31;;;;;;;;;;;;;;;;;;4986987;28;19926;-64
2021/01/05 14:10:58;;;;;;;;;;;;;;;;;;4981087;28;20012;-64
2021/01/05 14:13:24;;;;;;;;;;;;;;;;;;4989869;28;20330;-66
2021/01/05 14:15:51;;;;;;;;;;;;;;;;;;4994876;28;19926;-64
2021/01/05 14:18:17;;;;;;;;;;;;;;;;;;4990254;28;19934;-64
2021/01/05 14:20:44;;;;;;;;;;;;;;;;;;4996923;28;19926;-64
2021/01/05 14:23:10;;;;;;;;;;;;;;;;;;4999402;28;20025;-64
2021/01/05 14:25:37;;;;;;;;;;;;;;;;;;4994431;28;19926;-65
2021/01/05 14:28:03;;;;;;;;;;;;;;;;;;4991688;28;19936;-65
2021/01/05 14:30:30;;;;;;;;;;;;;;;;;;4993122;28;19936;-63
2021/01/05 14:32:56;;;;;;;;;;;;;;;;;;4992302;28;19936;-65
2021/01/05 14:35:23;;;;;;;;;;;;;;;;;;4993223;28;20085;-65
2021/01/05 14:37:49;;;;;;;;;;;;;;;;;;4994037;28;19926;-63
2021/01/05 14:40:16;;;;;;;;;;;;;;;;;;4990416;28;19993;-63
2021/01/05 14:42:42;;;;;;;;;;;;;;;;;;4992177;28;19933;-63
2021/01/05 14:45:09;;;;;;;;;;;;;;;;;;4992048;28;20354;-63
2021/01/05 14:47:35;;;;;;;;;;;;;;;;;;4987802;28;19929;-65
2021/01/05 14:50:02;;;;;;;;;;;;;;;;;;4993414;28;19925;-63
2021/01/05 14:52:28;;;;;;;;;;;;;;;;;;4994423;28;20396;-62
2021/01/05 14:54:55;;;;;;;;;;;;;;;;;;4995823;28;20068;-63
2021/01/05 14:57:21;;;;;;;;;;;;;;;;;;4993579;28;19926;-64
2021/01/05 14:59:48;;;;;;;;;;;;;;;;;;4991487;28;19926;-65
2021/01/05 15:02:14;;;;;;;;;;;;;;;;;;4989370;28;19932;-64
2021/01/05 15:04:41;;;;;;;;;;;;;;;;;;4993807;28;19926;-64
2021/01/05 15:07:07;;;;;;;;;;;;;;;;;;4993542;28;19973;-64
2021/01/05 15:09:34;;;;;;;;;;;;;;;;;;4991127;28;20448;-64
2021/01/05 15:12:01;;;;;;;;;;;;;;;;;;4993860;28;20064;-64
2021/01/05 15:14:27;;;;;;;;;;;;;;;;;;4994299;28;19961;-64
2021/01/05 15:16:54;;;;;;;;;;;;;;;;;;4989999;28;19929;-64
2021/01/05 15:19:20;;;;;;;;;;;;;;;;;;4993500;28;20028;-64
2021/01/05 15:21:47;;;;;;;;;;;;;;;;;;4995389;28;20426;-63
2021/01/05 15:24:13;;;;;;;;;;;;;;;;;;4993859;28;19940;-62
2021/01/05 15:26:40;;;;;;;;;;;;;;;;;;4989465;28;19932;-65
2021/01/05 15:29:06;;;;;;;;;;;;;;;;;;4994117;28;19926;-63
2021/01/05 15:31:33;;;;;;;;;;;;;;;;;;4991766;28;19984;-64
2021/01/05 15:33:59;;;;;;;;;;;;;;;;;;4992399;28;19929;-63
2021/01/05 15:36:26;;;;;;;;;;;;;;;;;;4994928;28;20019;-64
2021/01/05 15:38:52;;;;;;;;;;;;;;;;;;4994600;28;19926;-65
2021/01/05 15:41:19;;;;;;;;;;;;;;;;;;4994465;28;19925;-64
2021/01/05 15:43:45;;;;;;;;;;;;;;;;;;4993898;28;19926;-63
2021/01/05 15:46:12;;;;;;;;;;;;;;;;;;4993462;28;19932;-63
2021/01/05 15:48:38;;;;;;;;;;;;;;;;;;4991165;28;20314;-64
2021/01/05 15:51:05;;;;;;;;;;;;;;;;;;4985864;28;19926;-64
2021/01/05 15:53:31;;;;;;;;;;;;;;;;;;4993425;28;19926;-64
2021/01/05 15:55:58;;;;;;;;;;;;;;;;;;4988739;28;19926;-64
2021/01/05 15:58:24;;;;;;;;;;;;;;;;;;4989013;28;20033;-64
2021/01/05 16:00:51;;;;;;;;;;;;;;;;;;4993072;28;19932;-64
2021/01/05 16:03:17;;;;;;;;;;;;;;;;;;4987293;28;19949;-66
2021/01/05 16:05:44;;;;;;;;;;;;;;;;;;4990217;28;20455;-64
2021/01/05 16:08:10;;;;;;;;;;;;;;;;;;4988654;28;20024;-64
2021/01/05 16:10:36;;;;;;;;;;;;;;;;;;4994645;28;19925;-64
2021/01/05 16:13:03;;;;;;;;;;;;;;;;;;4990105;28;19930;-64
2021/01/05 16:15:30;;;;;;;;;;;;;;;;;;4992765;28;20376;-64
2021/01/05 16:17:56;;;;;;;;;;;;;;;;;;4992901;28;19926;-64
2021/01/05 16:20:23;;;;;;;;;;;;;;;;;;4991267;28;19981;-64
2021/01/05 16:22:49;;;;;;;;;;;;;;;;;;4990323;28;19925;-63
2021/01/05 16:25:16;;;;;;;;;;;;;;;;;;4985767;28;19930;-63
2021/01/05 16:27:43;;;;;;;;;;;;;;;;;;4992512;28;19960;-63
2021/01/05 16:30:09;;;;;;;;;;;;;;;;;;4987955;28;19933;-64
2021/01/05 16:32:36;;;;;;;;;;;;;;;;;;4992216;28;19926;-63
2021/01/05 16:35:02;;;;;;;;;;;;;;;;;;4988364;28;20355;-64
2021/01/05 16:37:29;;;;;;;;;;;;;;;;;;4992075;28;19926;-64
2021/01/05 16:39:55;;;;;;;;;;;;;;;;;;4992462;28;19984;-64